createdAt,value
2023-05-19T00:00:51.069Z,102316.72
2023-05-19T00:03:21.676Z,102310.88
2023-05-19T00:05:48.861Z,102315.88
2023-05-19T00:08:19.198Z,102310.44
2023-05-19T00:10:46.343Z,102313.75
2023-05-19T00:13:12.958Z,102313.38
2023-05-19T00:15:40.151Z,102306.47
2023-05-19T00:18:08.908Z,102309.00
2023-05-19T00:20:35.472Z,102309.88
2023-05-19T00:23:01.994Z,102306.97
2023-05-19T00:25:28.442Z,102303.09
2023-05-19T00:27:54.890Z,102306.00
2023-05-19T00:30:22.873Z,102309.03
2023-05-19T00:32:49.459Z,102307.75
2023-05-19T00:35:16.386Z,102305.78
2023-05-19T00:37:42.829Z,102307.00
2023-05-19T00:40:10.224Z,102310.56
2023-05-19T00:42:36.906Z,102303.97
2023-05-19T00:45:03.534Z,102309.00
2023-05-19T00:47:30.064Z,102296.66
2023-05-19T00:49:56.812Z,102302.41
2023-05-19T00:52:23.436Z,102309.00
2023-05-19T00:54:51.359Z,102307.41
2023-05-19T00:57:17.972Z,102307.03
2023-05-19T00:59:44.502Z,102304.16
2023-05-19T01:02:11.031Z,102297.56
2023-05-19T01:04:39.468Z,102296.69
2023-05-19T01:07:07.048Z,102299.38
2023-05-19T01:09:33.607Z,102301.31
2023-05-19T01:12:01.342Z,102297.31
2023-05-19T01:14:28.824Z,102293.66
2023-05-19T01:17:20.635Z,102299.00
2023-05-19T01:20:06.481Z,102306.78
2023-05-19T01:22:54.847Z,102310.94
2023-05-19T01:25:53.923Z,102298.78
2023-05-19T01:28:53.163Z,102302.91
2023-05-19T01:31:23.886Z,102303.25
2023-05-19T01:33:52.498Z,102304.59
2023-05-19T01:36:21.718Z,102304.09
2023-05-19T01:38:52.191Z,102311.03
2023-05-19T01:41:21.780Z,102304.34
2023-05-19T01:43:49.515Z,102296.44
2023-05-19T01:46:17.486Z,102305.16
2023-05-19T01:48:44.804Z,102304.31
2023-05-19T01:51:11.319Z,102307.34
2023-05-19T01:53:37.844Z,102309.28
2023-05-19T01:56:05.891Z,102307.47
2023-05-19T01:58:45.117Z,102308.31
2023-05-19T02:01:24.715Z,102313.91
2023-05-19T02:04:19.173Z,102305.13
2023-05-19T02:06:55.079Z,102312.91
2023-05-19T02:09:40.739Z,102312.41
2023-05-19T02:12:19.423Z,102315.00
2023-05-19T02:14:52.842Z,102310.09
2023-05-19T02:17:20.514Z,102311.31
2023-05-19T02:19:47.246Z,102311.56
2023-05-19T02:22:14.498Z,102307.16
2023-05-19T02:24:41.436Z,102310.44
2023-05-19T02:27:07.946Z,102308.50
2023-05-19T02:29:34.421Z,102307.50
2023-05-19T02:32:02.065Z,102298.50
2023-05-19T02:34:28.641Z,102303.72
2023-05-19T02:36:56.470Z,102294.38
2023-05-19T02:39:23.048Z,102297.47
2023-05-19T02:41:49.559Z,102304.31
2023-05-19T02:44:16.040Z,102291.13
2023-05-19T02:46:42.655Z,102293.03
2023-05-19T02:49:09.339Z,102306.44
2023-05-19T02:51:35.790Z,102297.91
2023-05-19T02:54:02.273Z,102291.94
2023-05-19T02:56:28.747Z,102299.00
2023-05-19T02:58:55.237Z,102309.56
2023-05-19T03:01:22.972Z,102290.72
2023-05-19T03:03:49.681Z,102299.31
2023-05-19T03:06:17.966Z,102304.53
2023-05-19T03:08:44.980Z,102293.31
2023-05-19T03:11:11.463Z,102291.84
2023-05-19T03:13:37.944Z,102295.84
2023-05-19T03:16:04.475Z,102292.47
2023-05-19T03:18:31.026Z,102290.75
2023-05-19T03:20:57.525Z,102289.66
2023-05-19T03:23:24.048Z,102291.84
2023-05-19T03:25:50.928Z,102297.56
2023-05-19T03:28:17.947Z,102295.25
2023-05-19T03:30:44.804Z,102291.38
2023-05-19T03:33:15.884Z,102294.63
2023-05-19T03:35:44.278Z,102294.84
2023-05-19T03:38:11.025Z,102288.19
2023-05-19T03:40:38.357Z,102301.72
2023-05-19T03:43:09.109Z,102296.25
2023-05-19T03:45:42.874Z,102284.69
2023-05-19T03:48:32.686Z,102293.00
2023-05-19T03:51:28.560Z,102281.31
2023-05-19T03:53:57.403Z,102287.63
2023-05-19T03:56:26.400Z,102288.00
2023-05-19T03:58:54.719Z,102289.34
2023-05-19T04:01:21.225Z,102299.94
2023-05-19T04:03:47.701Z,102294.34
2023-05-19T04:06:14.186Z,102288.94
2023-05-19T04:08:40.626Z,102295.78
2023-05-19T04:11:07.070Z,102290.78
2023-05-19T04:13:34.412Z,102288.25
2023-05-19T04:16:01.429Z,102295.06
2023-05-19T04:18:29.246Z,102295.69
2023-05-19T04:20:55.991Z,102289.63
2023-05-19T04:23:22.478Z,102292.81
2023-05-19T04:25:49.774Z,102288.66
2023-05-19T04:28:16.568Z,102297.03
2023-05-19T04:30:43.085Z,102289.22
2023-05-19T04:33:09.576Z,102297.47
2023-05-19T04:35:38.091Z,102297.00
2023-05-19T04:38:04.623Z,102295.47
2023-05-19T04:40:33.342Z,102299.09
2023-05-19T04:43:01.965Z,102296.59
2023-05-19T04:45:28.817Z,102300.16
2023-05-19T04:47:59.223Z,102290.81
2023-05-19T04:50:26.183Z,102292.03
2023-05-19T04:52:52.703Z,102306.78
2023-05-19T04:55:19.618Z,102297.94
2023-05-19T04:57:47.690Z,102300.88
2023-05-19T05:00:14.567Z,102297.34
2023-05-19T05:02:59.412Z,102297.16
2023-05-19T05:05:29.004Z,102296.66
2023-05-19T05:07:55.555Z,102297.56
2023-05-19T05:10:23.961Z,102292.41
2023-05-19T05:12:50.861Z,102298.84
2023-05-19T05:15:17.825Z,102293.50
2023-05-19T05:17:47.746Z,102299.03
2023-05-19T05:20:15.045Z,102302.22
2023-05-19T05:22:42.123Z,102309.81
2023-05-19T05:25:09.812Z,102297.59
2023-05-19T05:27:37.153Z,102305.34
2023-05-19T05:30:05.846Z,102305.16
2023-05-19T05:32:32.572Z,102302.84
2023-05-19T05:35:00.792Z,102300.69
2023-05-19T05:37:27.300Z,102291.69
2023-05-19T05:39:53.792Z,102293.00
2023-05-19T05:42:20.297Z,102292.75
2023-05-19T05:44:48.219Z,102298.09
2023-05-19T05:47:15.325Z,102292.16
2023-05-19T05:49:42.103Z,102297.53
2023-05-19T05:52:12.206Z,102295.91
2023-05-19T05:54:44.296Z,102294.72
2023-05-19T05:57:11.964Z,102290.69
2023-05-19T05:59:40.681Z,102288.53
2023-05-19T06:02:07.473Z,102294.97
2023-05-19T06:04:35.071Z,102290.41
2023-05-19T06:07:01.887Z,102291.22
2023-05-19T06:09:32.966Z,102291.13
2023-05-19T06:12:00.279Z,102285.75
2023-05-19T06:14:30.023Z,102291.50
2023-05-19T06:17:16.860Z,102289.91
2023-05-19T06:19:43.322Z,102289.44
2023-05-19T06:22:09.799Z,102286.38
2023-05-19T06:24:38.675Z,102292.03
2023-05-19T06:27:05.896Z,102288.63
2023-05-19T06:29:32.370Z,102285.00
2023-05-19T06:32:02.393Z,102290.06
2023-05-19T06:34:29.639Z,102284.44
2023-05-19T06:36:56.144Z,102290.34
2023-05-19T06:39:23.030Z,102290.03
2023-05-19T06:41:49.514Z,102290.56
2023-05-19T06:44:35.960Z,102289.69
2023-05-19T06:47:02.479Z,102289.69
2023-05-19T06:49:29.915Z,102289.38
2023-05-19T06:51:56.488Z,102286.56
2023-05-19T06:54:23.002Z,102288.56
2023-05-19T06:56:49.437Z,102286.56
2023-05-19T06:59:16.198Z,102290.28
2023-05-19T07:01:44.292Z,102296.88
2023-05-19T07:04:11.323Z,102299.56
2023-05-19T07:06:38.413Z,102303.94
2023-05-19T07:09:05.677Z,102297.78
2023-05-19T07:11:32.605Z,102288.16
2023-05-19T07:13:59.124Z,102291.63
2023-05-19T07:16:29.941Z,102296.41
2023-05-19T07:18:56.460Z,102290.06
2023-05-19T07:21:23.366Z,102288.66
2023-05-19T07:23:50.663Z,102278.63
2023-05-19T07:26:17.134Z,102293.66
2023-05-19T07:28:43.666Z,102284.09
2023-05-19T07:31:10.151Z,102282.69
2023-05-19T07:33:36.613Z,102279.94
2023-05-19T07:36:03.369Z,102280.41
2023-05-19T07:38:31.450Z,102288.50
2023-05-19T07:40:57.917Z,102277.31
2023-05-19T07:43:24.415Z,102272.25
2023-05-19T07:45:51.102Z,102267.44
2023-05-19T07:48:18.780Z,102272.78
2023-05-19T07:50:45.337Z,102271.72
2023-05-19T07:53:11.857Z,102268.81
2023-05-19T07:55:38.307Z,102266.72
2023-05-19T07:58:04.791Z,102269.25
2023-05-19T08:00:31.488Z,102261.69
2023-05-19T08:02:58.539Z,102267.50
2023-05-19T08:05:26.028Z,102257.28
2023-05-19T08:07:52.512Z,102264.53
2023-05-19T08:10:18.989Z,102264.09
2023-05-19T08:12:45.676Z,102264.84
2023-05-19T08:15:12.252Z,102265.41
2023-05-19T08:17:38.957Z,102265.72
2023-05-19T08:20:08.136Z,102269.50
2023-05-19T08:22:34.600Z,102263.50
2023-05-19T08:25:01.433Z,102277.97
2023-05-19T08:27:27.904Z,102284.00
2023-05-19T08:29:55.313Z,102285.44
2023-05-19T08:32:21.819Z,102276.25
2023-05-19T08:34:48.288Z,102267.28
2023-05-19T08:37:14.816Z,102266.75
2023-05-19T08:39:41.299Z,102269.97
2023-05-19T08:42:09.736Z,102264.44
2023-05-19T08:44:38.155Z,102271.94
2023-05-19T08:47:12.768Z,102266.06
2023-05-19T08:49:46.987Z,102266.72
2023-05-19T08:52:31.315Z,102268.25
2023-05-19T08:55:04.728Z,102272.16
2023-05-19T08:57:32.765Z,102261.44
2023-05-19T09:00:00.201Z,102251.50
2023-05-19T09:02:27.416Z,102254.53
2023-05-19T09:04:55.608Z,102253.50
2023-05-19T09:07:23.119Z,102244.91
2023-05-19T09:09:49.573Z,102240.16
2023-05-19T09:12:16.210Z,102240.19
2023-05-19T09:14:42.904Z,102235.19
2023-05-19T09:17:09.735Z,102242.06
2023-05-19T09:19:36.416Z,102232.72
2023-05-19T09:22:03.501Z,102231.75
2023-05-19T09:24:30.164Z,102229.78
2023-05-19T09:26:58.488Z,102226.91
2023-05-19T09:29:26.345Z,102232.44
2023-05-19T09:31:56.098Z,102227.78
2023-05-19T09:34:24.842Z,102223.47
2023-05-19T09:36:54.404Z,102214.03
2023-05-19T09:39:22.817Z,102217.41
2023-05-19T09:41:58.646Z,102224.41
2023-05-19T09:44:30.294Z,102219.63
2023-05-19T09:46:58.271Z,102208.91
2023-05-19T09:49:27.234Z,102214.78
2023-05-19T09:51:55.089Z,102208.81
2023-05-19T09:54:23.711Z,102216.69
2023-05-19T09:57:04.839Z,102211.91
2023-05-19T09:59:33.815Z,102209.59
2023-05-19T10:02:02.156Z,102203.34
2023-05-19T10:04:30.503Z,102198.69
2023-05-19T10:07:05.348Z,102184.78
2023-05-19T10:09:32.226Z,102183.59
2023-05-19T10:11:59.150Z,102190.84
2023-05-19T10:14:27.481Z,102190.03
2023-05-19T10:16:56.222Z,102186.06
2023-05-19T10:19:25.088Z,102190.84
2023-05-19T10:21:52.780Z,102198.75
2023-05-19T10:24:19.509Z,102188.63
2023-05-19T10:26:51.760Z,102186.06
2023-05-19T10:29:23.005Z,102183.91
2023-05-19T10:31:52.494Z,102186.34
2023-05-19T10:34:19.028Z,102188.97
2023-05-19T10:36:55.802Z,102189.88
2023-05-19T10:39:27.852Z,102190.06
2023-05-19T10:42:09.040Z,102186.56
2023-05-19T10:45:09.765Z,102187.66
2023-05-19T10:47:36.520Z,102179.72
2023-05-19T10:50:04.641Z,102181.59
2023-05-19T10:52:31.144Z,102179.63
2023-05-19T10:54:58.253Z,102177.56
2023-05-19T10:57:28.204Z,102174.50
2023-05-19T10:59:55.937Z,102174.41
2023-05-19T11:02:39.827Z,102171.19
2023-05-19T11:05:11.294Z,102166.75
2023-05-19T11:07:42.420Z,102167.28
2023-05-19T11:10:09.285Z,102169.69
2023-05-19T11:12:45.749Z,102163.31
2023-05-19T11:15:15.985Z,102167.31
2023-05-19T11:17:48.715Z,102149.72
2023-05-19T11:20:26.083Z,102154.75
2023-05-19T11:23:09.406Z,102148.06
2023-05-19T11:25:53.923Z,102145.34
2023-05-19T11:28:28.104Z,102149.03
2023-05-19T11:30:57.829Z,102143.00
2023-05-19T11:33:27.243Z,102144.06
2023-05-19T11:36:00.344Z,102139.81
2023-05-19T11:38:28.584Z,102129.94
2023-05-19T11:40:55.897Z,102156.91
2023-05-19T11:43:23.633Z,102149.97
2023-05-19T11:45:50.244Z,102147.00
2023-05-19T11:48:17.461Z,102139.03
2023-05-19T11:50:44.245Z,102133.97
2023-05-19T11:53:14.106Z,102132.09
2023-05-19T11:55:46.123Z,102149.94
2023-05-19T11:58:12.827Z,102150.75
2023-05-19T12:00:41.506Z,102141.09
2023-05-19T12:03:09.078Z,102144.38
2023-05-19T12:05:41.933Z,102151.66
2023-05-19T12:08:09.674Z,102149.03
2023-05-19T12:10:36.860Z,102144.94
2023-05-19T12:13:03.643Z,102136.69
2023-05-19T12:15:32.057Z,102140.91
2023-05-19T12:18:02.826Z,102140.38
2023-05-19T12:20:35.464Z,102140.66
2023-05-19T12:23:02.391Z,102139.66
2023-05-19T12:25:29.708Z,102142.81
2023-05-19T12:28:00.364Z,102142.81
2023-05-19T12:30:28.995Z,102132.06
2023-05-19T12:32:57.735Z,102124.41
2023-05-19T12:35:33.823Z,102129.75
2023-05-19T12:38:06.782Z,102126.31
2023-05-19T12:40:34.956Z,102112.94
2023-05-19T12:43:01.897Z,102116.47
2023-05-19T12:45:28.806Z,102121.34
2023-05-19T12:47:56.059Z,102123.66
2023-05-19T12:50:30.226Z,102113.56
2023-05-19T12:52:58.393Z,102115.41
2023-05-19T12:55:25.077Z,102097.47
2023-05-19T12:57:57.949Z,102101.56
2023-05-19T13:00:28.209Z,102101.84
2023-05-19T13:03:00.884Z,102105.75
2023-05-19T13:05:29.032Z,102105.44
2023-05-19T13:07:55.614Z,102115.47
2023-05-19T13:10:22.330Z,102096.72
2023-05-19T13:12:48.788Z,102105.88
2023-05-19T13:15:15.383Z,102093.25
2023-05-19T13:17:41.872Z,102109.25
2023-05-19T13:20:08.998Z,102105.25
2023-05-19T13:22:35.483Z,102101.78
2023-05-19T13:25:02.253Z,102098.59
2023-05-19T13:27:28.715Z,102101.00
2023-05-19T13:29:55.242Z,102093.56
2023-05-19T13:32:21.911Z,102099.25
2023-05-19T13:34:48.933Z,102099.63
2023-05-19T13:37:15.441Z,102088.06
2023-05-19T13:39:41.991Z,102086.38
2023-05-19T13:42:08.485Z,102086.41
2023-05-19T13:44:34.963Z,102077.38
2023-05-19T13:47:01.544Z,102082.31
2023-05-19T13:49:28.057Z,102086.94
2023-05-19T13:51:58.277Z,102092.09
2023-05-19T13:54:24.783Z,102091.47
2023-05-19T13:56:51.330Z,102090.03
2023-05-19T13:59:17.790Z,102090.00
2023-05-19T14:01:45.378Z,102089.13
2023-05-19T14:04:12.028Z,102096.06
2023-05-19T14:06:38.638Z,102088.81
2023-05-19T14:09:06.447Z,102090.31
2023-05-19T14:11:32.891Z,102093.88
2023-05-19T14:13:59.513Z,102090.72
2023-05-19T14:16:27.186Z,102092.81
2023-05-19T14:18:53.697Z,102089.41
2023-05-19T14:21:20.254Z,102087.25
2023-05-19T14:23:46.704Z,102088.28
2023-05-19T14:26:13.154Z,102095.97
2023-05-19T14:28:39.616Z,102088.84
2023-05-19T14:31:07.004Z,102086.09
2023-05-19T14:33:35.574Z,102093.03
2023-05-19T14:36:02.381Z,102082.41
2023-05-19T14:38:29.474Z,102097.88
2023-05-19T14:40:56.146Z,102094.44
2023-05-19T14:43:22.603Z,102101.16
2023-05-19T14:45:49.297Z,102100.19
2023-05-19T14:48:15.934Z,102096.94
2023-05-19T14:50:42.429Z,102098.50
2023-05-19T14:53:08.876Z,102098.44
2023-05-19T14:55:35.330Z,102097.16
2023-05-19T14:58:01.975Z,102094.34
2023-05-19T15:00:29.007Z,102097.44
2023-05-19T15:02:56.043Z,102099.59
2023-05-19T15:05:25.661Z,102093.50
2023-05-19T15:07:52.151Z,102100.81
2023-05-19T15:10:22.007Z,102099.06
2023-05-19T15:12:48.523Z,102105.34
2023-05-19T15:15:17.628Z,102104.56
2023-05-19T15:17:46.802Z,102093.13
2023-05-19T15:20:13.370Z,102096.25
2023-05-19T15:22:39.859Z,102095.84
2023-05-19T15:25:07.056Z,102095.81
2023-05-19T15:27:35.572Z,102085.88
2023-05-19T15:30:03.447Z,102090.44
2023-05-19T15:32:29.925Z,102088.31
2023-05-19T15:34:56.395Z,102091.63
2023-05-19T15:37:22.850Z,102091.31
2023-05-19T15:39:49.434Z,102099.00
2023-05-19T15:42:15.910Z,102089.44
2023-05-19T15:44:42.430Z,102088.38
2023-05-19T15:47:08.893Z,102093.31
2023-05-19T15:49:35.457Z,102091.63
2023-05-19T15:52:01.927Z,102091.63
2023-05-19T15:54:28.392Z,102092.56
2023-05-19T15:56:54.877Z,102090.00
2023-05-19T15:59:21.358Z,102089.13
2023-05-19T16:01:48.516Z,102095.06
2023-05-19T16:04:15.696Z,102093.75
2023-05-19T16:06:42.350Z,102085.16
2023-05-19T16:09:08.831Z,102083.47
2023-05-19T16:11:35.324Z,102086.69
2023-05-19T16:14:01.800Z,102089.91
2023-05-19T16:16:28.303Z,102091.59
2023-05-19T16:18:54.851Z,102085.94
2023-05-19T16:21:21.812Z,102080.34
2023-05-19T16:23:48.305Z,102078.47
2023-05-19T16:26:14.762Z,102073.56
2023-05-19T16:28:41.234Z,102074.88
2023-05-19T16:31:07.787Z,102069.91
2023-05-19T16:33:34.235Z,102077.00
2023-05-19T16:36:00.868Z,102082.38
2023-05-19T16:38:27.574Z,102076.06
2023-05-19T16:40:54.029Z,102071.56
2023-05-19T16:43:20.466Z,102086.03
2023-05-19T16:45:46.966Z,102077.75
2023-05-19T16:48:13.510Z,102081.19
2023-05-19T16:50:40.068Z,102090.91
2023-05-19T16:53:06.552Z,102075.91
2023-05-19T16:55:32.995Z,102081.81
2023-05-19T16:57:59.507Z,102084.56
2023-05-19T17:00:27.310Z,102083.63
2023-05-19T17:02:53.827Z,102082.53
2023-05-19T17:05:20.558Z,102081.50
2023-05-19T17:07:47.019Z,102090.06
2023-05-19T17:10:14.386Z,102083.31
2023-05-19T17:12:40.917Z,102087.53
2023-05-19T17:15:07.826Z,102094.66
2023-05-19T17:17:34.323Z,102090.41
2023-05-19T17:20:00.858Z,102093.56
2023-05-19T17:22:28.278Z,102099.59
2023-05-19T17:24:57.397Z,102101.69
2023-05-19T17:27:23.854Z,102096.56
2023-05-19T17:29:50.455Z,102094.53
2023-05-19T17:32:17.128Z,102096.03
2023-05-19T17:34:43.660Z,102094.88
2023-05-19T17:37:11.288Z,102090.00
2023-05-19T17:39:37.728Z,102090.06
2023-05-19T17:42:04.381Z,102093.59
2023-05-19T17:44:30.838Z,102089.13
2023-05-19T17:46:58.040Z,102091.13
2023-05-19T17:49:25.627Z,102100.22
2023-05-19T17:51:52.493Z,102096.78
2023-05-19T17:54:19.248Z,102101.28
2023-05-19T17:56:45.772Z,102099.97
2023-05-19T17:59:12.386Z,102097.16
2023-05-19T18:01:40.554Z,102105.38
2023-05-19T18:04:08.051Z,102093.50
2023-05-19T18:06:37.168Z,102089.81
2023-05-19T18:09:05.926Z,102099.81
2023-05-19T18:11:32.406Z,102098.13
2023-05-19T18:13:58.873Z,102099.75
2023-05-19T18:16:25.805Z,102095.53
2023-05-19T18:18:52.318Z,102102.00
2023-05-19T18:21:18.875Z,102099.16
2023-05-19T18:23:46.248Z,102105.19
2023-05-19T18:26:13.116Z,102105.50
2023-05-19T18:28:40.552Z,102100.44
2023-05-19T18:31:15.639Z,102110.69
2023-05-19T18:33:43.050Z,102106.25
2023-05-19T18:36:09.933Z,102110.16
2023-05-19T18:38:36.405Z,102113.28
2023-05-19T18:41:02.973Z,102113.00
2023-05-19T18:43:30.177Z,102124.38
2023-05-19T18:45:57.097Z,102117.25
2023-05-19T18:48:25.465Z,102114.75
2023-05-19T18:50:51.943Z,102114.19
2023-05-19T18:53:18.428Z,102112.53
2023-05-19T18:55:44.892Z,102122.66
2023-05-19T18:58:11.662Z,102119.59
2023-05-19T19:00:38.183Z,102119.66
2023-05-19T19:03:04.762Z,102121.69
2023-05-19T19:05:31.277Z,102120.56
2023-05-19T19:07:57.975Z,102119.69
2023-05-19T19:10:24.474Z,102121.19
2023-05-19T19:12:51.050Z,102117.81
2023-05-19T19:15:17.515Z,102120.63
2023-05-19T19:17:45.245Z,102120.94
2023-05-19T19:20:12.234Z,102132.81
2023-05-19T19:22:38.821Z,102126.63
2023-05-19T19:25:05.690Z,102132.00
2023-05-19T19:27:35.375Z,102132.53
2023-05-19T19:30:02.112Z,102139.03
2023-05-19T19:32:28.593Z,102127.19
2023-05-19T19:34:55.112Z,102142.22
2023-05-19T19:37:21.559Z,102126.38
2023-05-19T19:39:48.021Z,102122.72
2023-05-19T19:42:14.473Z,102119.06
2023-05-19T19:44:41.017Z,102130.09
2023-05-19T19:47:07.651Z,102129.78
2023-05-19T19:49:34.143Z,102133.19
2023-05-19T19:52:00.671Z,102129.50
2023-05-19T19:54:27.150Z,102127.81
2023-05-19T19:56:53.704Z,102125.84
2023-05-19T19:59:20.397Z,102131.78
2023-05-19T20:01:46.904Z,102134.03
2023-05-19T20:04:13.553Z,102134.59
2023-05-19T20:06:40.116Z,102138.00
2023-05-19T20:09:06.967Z,102138.00
2023-05-19T20:11:33.436Z,102138.25
2023-05-19T20:14:00.084Z,102150.69
2023-05-19T20:16:26.887Z,102146.16
2023-05-19T20:18:53.517Z,102147.56
2023-05-19T20:21:20.001Z,102156.88
2023-05-19T20:23:46.570Z,102157.44
2023-05-19T20:26:13.566Z,102160.25
2023-05-19T20:28:40.529Z,102160.28
2023-05-19T20:31:07.351Z,102165.34
2023-05-19T20:33:33.973Z,102166.75
2023-05-19T20:36:00.575Z,102158.28
2023-05-19T20:38:27.752Z,102174.09
2023-05-19T20:40:54.683Z,102168.16
2023-05-19T20:43:21.294Z,102168.16
2023-05-19T20:45:47.878Z,102178.31
2023-05-19T20:48:15.875Z,102175.22
2023-05-19T20:50:42.514Z,102168.44
2023-05-19T20:53:08.978Z,102166.44
2023-05-19T20:55:36.538Z,102168.16
2023-05-19T20:58:03.021Z,102165.91
2023-05-19T21:00:30.530Z,102169.25
2023-05-19T21:02:57.427Z,102171.22
2023-05-19T21:05:23.974Z,102167.53
2023-05-19T21:07:50.574Z,102170.94
2023-05-19T21:10:17.942Z,102170.41
2023-05-19T21:12:44.499Z,102172.09
2023-05-19T21:15:11.435Z,102176.84
2023-05-19T21:17:38.112Z,102176.53
2023-05-19T21:20:05.341Z,102178.81
2023-05-19T21:22:31.838Z,102182.44
2023-05-19T21:24:58.365Z,102183.25
2023-05-19T21:27:24.907Z,102179.59
2023-05-19T21:29:53.081Z,102184.13
2023-05-19T21:32:20.422Z,102181.56
2023-05-19T21:34:47.135Z,102178.81
2023-05-19T21:37:13.615Z,102187.53
2023-05-19T21:39:40.052Z,102190.31
2023-05-19T21:42:06.504Z,102189.78
2023-05-19T21:44:33.070Z,102189.69
2023-05-19T21:46:59.583Z,102190.28
2023-05-19T21:49:26.078Z,102188.50
2023-05-19T21:51:52.546Z,102192.59
2023-05-19T21:54:18.989Z,102189.19
2023-05-19T21:56:45.596Z,102190.28
2023-05-19T21:59:12.117Z,102199.22
2023-05-19T22:01:38.823Z,102199.84
2023-05-19T22:04:05.565Z,102204.13
2023-05-19T22:06:32.314Z,102203.56
2023-05-19T22:09:01.141Z,102206.13
2023-05-19T22:11:27.651Z,102204.44
2023-05-19T22:13:57.058Z,102203.84
2023-05-19T22:16:23.609Z,102208.41
2023-05-19T22:18:50.091Z,102208.66
2023-05-19T22:21:16.559Z,102208.41
2023-05-19T22:23:43.326Z,102208.94
2023-05-19T22:26:09.870Z,102201.03
2023-05-19T22:28:36.412Z,102214.72
2023-05-19T22:31:02.864Z,102204.84
2023-05-19T22:33:29.320Z,102216.56
2023-05-19T22:35:55.912Z,102214.66
2023-05-19T22:38:22.371Z,102210.72
2023-05-19T22:40:49.905Z,102209.94
2023-05-19T22:43:16.507Z,102214.41
2023-05-19T22:45:44.279Z,102214.75
2023-05-19T22:48:11.365Z,102210.50
2023-05-19T22:50:37.890Z,102201.16
2023-05-19T22:53:04.349Z,102208.94
2023-05-19T22:55:30.822Z,102209.91
2023-05-19T22:57:57.372Z,102211.06
2023-05-19T23:00:23.897Z,102207.72
2023-05-19T23:02:50.484Z,102215.75
2023-05-19T23:05:16.973Z,102211.00
2023-05-19T23:07:43.449Z,102207.22
2023-05-19T23:10:10.283Z,102209.06
2023-05-19T23:12:37.080Z,102209.38
2023-05-19T23:15:03.924Z,102206.91
2023-05-19T23:17:30.369Z,102203.97
2023-05-19T23:19:56.937Z,102206.13
2023-05-19T23:22:23.404Z,102205.91
2023-05-19T23:24:49.884Z,102204.63
2023-05-19T23:27:16.343Z,102205.81
2023-05-19T23:29:47.152Z,102204.16
2023-05-19T23:32:13.674Z,102214.06
2023-05-19T23:34:40.143Z,102208.78
2023-05-19T23:37:06.773Z,102200.25
2023-05-19T23:39:33.217Z,102205.56
2023-05-19T23:41:59.664Z,102198.19
2023-05-19T23:44:27.265Z,102202.22
2023-05-19T23:46:53.776Z,102199.63
2023-05-19T23:49:20.393Z,102199.94
2023-05-19T23:51:47.184Z,102203.88
2023-05-19T23:54:13.646Z,102211.25
2023-05-19T23:56:40.103Z,102207.59
2023-05-19T23:59:06.608Z,102196.94
